createdAt,value
2023-03-07T00:02:08.394Z,10.53
2023-03-07T00:04:36.012Z,10.93
2023-03-07T00:07:03.921Z,10.97
2023-03-07T00:09:31.440Z,12.43
2023-03-07T00:12:00.381Z,10.80
2023-03-07T00:14:27.901Z,11.73
2023-03-07T00:16:55.424Z,10.50
2023-03-07T00:19:22.977Z,10.37
2023-03-07T00:21:50.497Z,11.33
2023-03-07T00:24:18.017Z,10.30
2023-03-07T00:26:45.556Z,10.37
2023-03-07T00:29:14.423Z,11.17
2023-03-07T00:31:42.011Z,10.63
2023-03-07T00:34:09.588Z,10.80
2023-03-07T00:36:37.124Z,11.47
2023-03-07T00:39:04.874Z,13.57
2023-03-07T00:41:32.498Z,11.37
2023-03-07T00:44:00.869Z,10.97
2023-03-07T00:46:29.879Z,10.27
2023-03-07T00:48:57.476Z,10.67
2023-03-07T00:51:25.249Z,11.00
2023-03-07T00:53:52.996Z,11.23
2023-03-07T00:56:22.101Z,10.77
2023-03-07T00:58:50.055Z,11.00
2023-03-07T01:01:19.375Z,11.87
2023-03-07T01:03:49.649Z,11.57
2023-03-07T01:06:19.232Z,11.73
2023-03-07T01:08:46.771Z,10.40
2023-03-07T01:11:14.854Z,11.40
2023-03-07T01:13:42.524Z,11.30
2023-03-07T01:16:11.863Z,10.47
2023-03-07T01:18:39.439Z,11.00
2023-03-07T01:21:16.036Z,10.23
2023-03-07T01:23:43.676Z,9.70
2023-03-07T01:26:13.525Z,10.70
2023-03-07T01:28:41.062Z,10.67
2023-03-07T01:31:08.713Z,11.17
2023-03-07T01:33:36.387Z,11.37
2023-03-07T01:36:04.590Z,11.03
2023-03-07T01:38:34.179Z,10.70
2023-03-07T01:41:02.060Z,11.77
2023-03-07T01:43:30.968Z,10.33
2023-03-07T01:46:27.044Z,11.10
2023-03-07T01:48:56.950Z,11.20
2023-03-07T01:51:24.953Z,10.63
2023-03-07T01:53:55.157Z,9.53
2023-03-07T01:56:23.080Z,9.80
2023-03-07T01:58:51.598Z,11.07
2023-03-07T02:01:19.318Z,11.00
2023-03-07T02:03:49.581Z,11.00
2023-03-07T02:06:17.236Z,10.87
2023-03-07T02:08:46.042Z,10.30
2023-03-07T02:11:15.096Z,11.27
2023-03-07T02:13:42.650Z,10.87
2023-03-07T02:16:10.887Z,10.80
2023-03-07T02:18:42.859Z,10.37
2023-03-07T02:21:15.211Z,10.47
2023-03-07T02:23:45.630Z,10.90
2023-03-07T02:26:20.823Z,10.70
2023-03-07T02:28:49.805Z,10.20
2023-03-07T02:31:17.373Z,10.27
2023-03-07T02:33:44.937Z,10.90
2023-03-07T02:36:15.910Z,10.03
2023-03-07T02:38:45.492Z,11.83
2023-03-07T02:41:14.516Z,11.30
2023-03-07T02:43:42.098Z,10.93
2023-03-07T02:46:11.318Z,10.87
2023-03-07T02:48:38.876Z,11.63
2023-03-07T02:51:06.915Z,11.63
2023-03-07T02:53:34.772Z,10.77
2023-03-07T02:56:02.388Z,11.43
2023-03-07T02:58:29.909Z,9.93
2023-03-07T03:00:57.450Z,10.50
2023-03-07T03:03:26.550Z,11.37
2023-03-07T03:05:54.192Z,9.97
2023-03-07T03:08:21.923Z,9.27
2023-03-07T03:10:53.391Z,10.20
2023-03-07T03:13:21.151Z,11.00
2023-03-07T03:15:48.813Z,10.20
2023-03-07T03:18:17.394Z,10.63
2023-03-07T03:20:46.283Z,10.00
2023-03-07T03:23:13.898Z,10.50
2023-03-07T03:25:41.546Z,9.43
2023-03-07T03:28:09.387Z,10.60
2023-03-07T03:30:36.971Z,9.57
2023-03-07T03:33:04.897Z,10.30
2023-03-07T03:35:33.691Z,11.07
2023-03-07T03:38:02.765Z,10.60
2023-03-07T03:40:31.116Z,9.60
2023-03-07T03:42:58.635Z,9.70
2023-03-07T03:45:26.184Z,9.93
2023-03-07T03:47:53.706Z,10.30
2023-03-07T03:50:21.355Z,10.20
2023-03-07T03:52:48.875Z,10.40
2023-03-07T03:55:18.189Z,10.70
2023-03-07T03:57:45.737Z,10.63
2023-03-07T04:00:15.844Z,9.90
2023-03-07T04:02:43.595Z,9.27
2023-03-07T04:05:11.405Z,10.03
2023-03-07T04:07:39.193Z,10.27
2023-03-07T04:10:07.843Z,10.13
2023-03-07T04:12:37.106Z,11.07
2023-03-07T04:15:05.213Z,10.30
2023-03-07T04:17:32.884Z,11.07
2023-03-07T04:20:00.485Z,10.67
2023-03-07T04:22:28.026Z,9.60
2023-03-07T04:24:55.642Z,10.80
2023-03-07T04:27:23.186Z,9.80
2023-03-07T04:29:52.070Z,10.33
2023-03-07T04:32:19.698Z,9.67
2023-03-07T04:34:47.308Z,10.37
2023-03-07T04:37:15.761Z,10.77
2023-03-07T04:39:43.311Z,9.93
2023-03-07T04:42:10.833Z,10.33
2023-03-07T04:44:38.354Z,10.50
2023-03-07T04:47:07.444Z,10.57
2023-03-07T04:49:35.190Z,10.60
2023-03-07T04:52:02.767Z,10.20
2023-03-07T04:54:30.321Z,11.33
2023-03-07T04:56:57.813Z,10.87
2023-03-07T04:59:25.432Z,10.47
2023-03-07T05:01:52.970Z,11.07
2023-03-07T05:04:21.958Z,10.50
2023-03-07T05:06:49.469Z,11.70
2023-03-07T05:09:17.080Z,10.07
2023-03-07T05:11:44.620Z,10.23
2023-03-07T05:14:12.195Z,10.53
2023-03-07T05:16:39.711Z,9.80
2023-03-07T05:19:07.731Z,9.73
2023-03-07T05:21:39.848Z,11.17
2023-03-07T05:24:07.586Z,9.00
2023-03-07T05:26:35.189Z,9.83
2023-03-07T05:29:02.796Z,9.27
2023-03-07T05:31:30.707Z,9.67
2023-03-07T05:33:58.467Z,10.17
2023-03-07T05:36:26.091Z,9.27
2023-03-07T05:38:56.357Z,9.37
2023-03-07T05:41:24.358Z,10.13
2023-03-07T05:43:51.960Z,10.63
2023-03-07T05:46:20.677Z,9.77
2023-03-07T05:48:48.382Z,9.03
2023-03-07T05:51:16.003Z,9.13
2023-03-07T05:53:44.917Z,9.93
2023-03-07T05:56:15.209Z,10.47
2023-03-07T05:58:42.951Z,10.93
2023-03-07T06:01:10.636Z,10.10
2023-03-07T06:03:38.514Z,9.87
2023-03-07T06:06:06.758Z,9.90
2023-03-07T06:08:34.596Z,10.17
2023-03-07T06:11:02.297Z,10.30
2023-03-07T06:13:32.001Z,9.90
2023-03-07T06:15:59.707Z,10.30
2023-03-07T06:18:27.547Z,10.50
2023-03-07T06:20:57.069Z,10.40
2023-03-07T06:23:24.787Z,10.37
2023-03-07T06:25:52.628Z,11.60
2023-03-07T06:28:20.521Z,10.60
2023-03-07T06:30:49.795Z,10.17
2023-03-07T06:33:17.805Z,10.43
2023-03-07T06:35:45.909Z,10.67
2023-03-07T06:38:15.436Z,10.07
2023-03-07T06:40:44.069Z,10.80
2023-03-07T06:43:12.668Z,11.53
2023-03-07T06:45:40.561Z,13.20
2023-03-07T06:48:09.605Z,15.10
2023-03-07T06:50:38.971Z,13.73
2023-03-07T06:53:06.647Z,10.53
2023-03-07T06:55:34.341Z,11.40
2023-03-07T06:58:02.009Z,11.13
2023-03-07T07:00:29.782Z,9.87
2023-03-07T07:02:58.034Z,10.33
2023-03-07T07:05:27.399Z,10.67
2023-03-07T07:07:55.138Z,10.73
2023-03-07T07:10:22.859Z,11.23
2023-03-07T07:12:54.484Z,11.10
2023-03-07T07:15:22.216Z,11.40
2023-03-07T07:17:49.924Z,11.03
2023-03-07T07:20:17.642Z,11.30
2023-03-07T07:22:46.710Z,11.27
2023-03-07T07:25:14.660Z,11.57
2023-03-07T07:27:42.327Z,10.33
2023-03-07T07:30:12.729Z,11.70
2023-03-07T07:32:40.732Z,10.27
2023-03-07T07:35:09.844Z,11.40
2023-03-07T07:37:37.517Z,11.87
2023-03-07T07:40:09.035Z,11.37
2023-03-07T07:42:36.726Z,11.70
2023-03-07T07:45:04.823Z,12.17
2023-03-07T07:47:32.475Z,10.87
2023-03-07T07:50:00.361Z,10.63
2023-03-07T07:52:28.085Z,10.40
2023-03-07T07:54:55.723Z,11.37
2023-03-07T07:57:24.776Z,10.97
2023-03-07T07:59:52.431Z,11.27
2023-03-07T08:02:20.220Z,10.13
2023-03-07T08:04:48.338Z,9.50
2023-03-07T08:07:16.200Z,10.93
2023-03-07T08:09:43.886Z,10.33
2023-03-07T08:12:12.759Z,9.27
2023-03-07T08:14:41.781Z,9.93
2023-03-07T08:17:09.569Z,9.47
2023-03-07T08:19:37.220Z,9.53
2023-03-07T08:22:05.178Z,11.13
2023-03-07T08:24:40.479Z,9.70
2023-03-07T08:27:08.841Z,9.30
2023-03-07T08:29:36.544Z,11.07
2023-03-07T08:32:06.164Z,9.10
2023-03-07T08:34:34.084Z,9.40
2023-03-07T08:37:01.777Z,8.83
2023-03-07T08:39:29.696Z,8.53
2023-03-07T08:41:57.362Z,9.50
2023-03-07T08:44:25.208Z,9.43
2023-03-07T08:46:52.866Z,8.77
2023-03-07T08:49:21.913Z,10.03
2023-03-07T08:51:49.645Z,9.47
2023-03-07T08:54:17.691Z,8.67
2023-03-07T08:56:45.547Z,8.80
2023-03-07T08:59:13.307Z,9.13
2023-03-07T09:01:41.318Z,9.73
2023-03-07T09:04:09.068Z,8.67
2023-03-07T09:06:38.242Z,10.13
2023-03-07T09:09:06.279Z,9.90
2023-03-07T09:11:33.961Z,9.10
2023-03-07T09:14:01.668Z,8.67
2023-03-07T09:16:29.345Z,9.37
2023-03-07T09:18:57.038Z,9.90
2023-03-07T09:21:24.760Z,9.60
2023-03-07T09:23:53.782Z,9.80
2023-03-07T09:26:21.513Z,9.53
2023-03-07T09:28:49.243Z,9.70
2023-03-07T09:31:17.410Z,9.13
2023-03-07T09:33:46.815Z,9.70
2023-03-07T09:36:15.719Z,9.33
2023-03-07T09:38:43.464Z,9.40
2023-03-07T09:41:23.042Z,9.60
2023-03-07T09:43:58.812Z,9.43
2023-03-07T09:46:32.112Z,9.40
2023-03-07T09:49:20.929Z,10.20
2023-03-07T09:51:52.126Z,9.37
2023-03-07T09:54:21.665Z,8.77
2023-03-07T09:56:54.161Z,8.97
2023-03-07T09:59:25.744Z,8.77
2023-03-07T10:01:57.607Z,9.23
2023-03-07T10:04:29.469Z,8.27
2023-03-07T10:06:59.490Z,9.10
2023-03-07T10:09:29.146Z,10.13
2023-03-07T10:12:11.425Z,8.20
2023-03-07T10:15:04.275Z,9.67
2023-03-07T10:17:45.406Z,8.80
2023-03-07T10:20:20.645Z,10.87
2023-03-07T10:22:55.122Z,8.73
2023-03-07T10:25:27.171Z,8.83
2023-03-07T10:28:01.666Z,9.13
2023-03-07T10:30:32.215Z,8.77
2023-03-07T10:33:01.463Z,9.40
2023-03-07T10:35:38.482Z,9.00
2023-03-07T10:38:16.168Z,9.83
2023-03-07T10:40:48.805Z,8.53
2023-03-07T10:43:23.595Z,8.03
2023-03-07T10:45:54.779Z,8.77
2023-03-07T10:48:22.743Z,8.83
2023-03-07T10:50:54.811Z,8.53
2023-03-07T10:53:24.091Z,8.60
2023-03-07T10:55:52.235Z,8.40
2023-03-07T10:58:24.733Z,8.43
2023-03-07T11:01:17.274Z,8.77
2023-03-07T11:03:53.289Z,8.17
2023-03-07T11:06:38.076Z,8.03
2023-03-07T11:09:17.102Z,8.27
2023-03-07T11:11:52.781Z,7.90
2023-03-07T11:14:22.968Z,7.90
2023-03-07T11:16:52.653Z,8.00
2023-03-07T11:19:45.342Z,7.70
2023-03-07T11:22:21.788Z,7.87
2023-03-07T11:24:52.720Z,9.00
2023-03-07T11:27:23.469Z,7.43
2023-03-07T11:30:20.861Z,7.80
2023-03-07T11:32:56.059Z,7.63
2023-03-07T11:35:31.008Z,8.50
2023-03-07T11:38:05.590Z,7.70
2023-03-07T11:40:36.046Z,6.87
2023-03-07T11:43:12.268Z,8.47
2023-03-07T11:45:43.909Z,7.83
2023-03-07T11:48:29.981Z,7.90
2023-03-07T11:50:58.430Z,7.67
2023-03-07T11:53:32.683Z,7.60
2023-03-07T11:56:20.034Z,7.57
2023-03-07T11:59:06.275Z,7.77
2023-03-07T12:01:39.813Z,7.80
2023-03-07T12:04:30.194Z,6.97
2023-03-07T12:07:05.877Z,7.37
2023-03-07T12:09:42.517Z,8.13
2023-03-07T12:12:27.566Z,7.33
2023-03-07T12:15:02.648Z,7.70
2023-03-07T12:17:39.571Z,6.80
2023-03-07T12:20:24.155Z,7.57
2023-03-07T12:23:01.092Z,7.17
2023-03-07T12:25:32.873Z,11.30
2023-03-07T12:28:07.433Z,7.00
2023-03-07T12:30:44.673Z,7.53
2023-03-07T12:33:20.676Z,7.33
2023-03-07T12:35:53.192Z,7.70
2023-03-07T12:38:32.190Z,8.17
2023-03-07T12:41:02.729Z,7.30
2023-03-07T12:43:33.918Z,6.87
2023-03-07T12:46:05.427Z,7.73
2023-03-07T12:48:39.788Z,7.10
2023-03-07T12:51:12.105Z,7.23
2023-03-07T12:53:43.115Z,7.10
2023-03-07T12:56:15.516Z,7.40
2023-03-07T12:58:47.211Z,7.30
2023-03-07T13:01:18.652Z,6.87
2023-03-07T13:03:52.064Z,6.73
2023-03-07T13:06:22.876Z,6.13
2023-03-07T13:08:52.236Z,6.47
2023-03-07T13:11:25.691Z,6.00
2023-03-07T13:13:55.531Z,7.03
2023-03-07T13:16:41.077Z,6.90
2023-03-07T13:19:46.227Z,6.00
2023-03-07T13:22:51.616Z,5.93
2023-03-07T13:26:16.171Z,6.13
2023-03-07T13:28:52.375Z,6.30
2023-03-07T13:31:46.717Z,6.80
2023-03-07T13:34:43.950Z,5.63
2023-03-07T13:37:48.988Z,6.00
2023-03-07T13:40:24.124Z,6.10
2023-03-07T13:42:54.859Z,6.70
2023-03-07T13:45:50.520Z,6.10
2023-03-07T13:48:57.993Z,5.73
2023-03-07T13:51:25.566Z,6.50
2023-03-07T13:53:54.582Z,6.13
2023-03-07T13:56:28.581Z,6.53
2023-03-07T13:58:59.164Z,6.40
2023-03-07T14:01:32.798Z,5.70
2023-03-07T14:04:05.064Z,6.17
2023-03-07T14:06:35.715Z,6.20
2023-03-07T14:09:06.030Z,5.93
2023-03-07T14:11:42.115Z,5.83
2023-03-07T14:14:30.642Z,7.13
2023-03-07T14:17:14.604Z,5.83
2023-03-07T14:19:55.504Z,6.43
2023-03-07T14:22:34.934Z,6.17
2023-03-07T14:25:18.621Z,6.17
2023-03-07T14:27:52.720Z,6.80
2023-03-07T14:30:21.246Z,6.43
2023-03-07T14:32:51.733Z,6.70
2023-03-07T14:35:37.277Z,7.37
2023-03-07T14:38:08.407Z,6.90
2023-03-07T14:40:43.428Z,6.90
2023-03-07T14:43:22.890Z,6.30
2023-03-07T14:45:53.949Z,6.30
2023-03-07T14:48:34.066Z,6.27
2023-03-07T14:51:06.575Z,6.50
2023-03-07T14:53:35.498Z,7.33
2023-03-07T14:56:07.868Z,7.07
2023-03-07T14:58:38.110Z,6.47
2023-03-07T15:01:07.074Z,6.57
2023-03-07T15:03:35.964Z,6.30
2023-03-07T15:06:04.376Z,6.80
2023-03-07T15:08:33.392Z,6.53
2023-03-07T15:11:05.101Z,6.57
2023-03-07T15:13:37.392Z,6.70
2023-03-07T15:16:08.992Z,6.27
2023-03-07T15:18:39.535Z,6.53
2023-03-07T15:21:07.789Z,6.77
2023-03-07T15:23:35.467Z,6.60
2023-03-07T15:26:05.207Z,6.20
2023-03-07T15:28:34.662Z,5.93
2023-03-07T15:31:02.743Z,5.73
2023-03-07T15:33:31.702Z,6.37
2023-03-07T15:36:27.338Z,5.83
2023-03-07T15:39:20.634Z,6.20
2023-03-07T15:42:00.018Z,5.97
2023-03-07T15:44:27.545Z,6.27
2023-03-07T15:46:56.300Z,5.77
2023-03-07T15:49:26.857Z,7.50
2023-03-07T15:51:57.122Z,5.63
2023-03-07T15:54:37.028Z,6.20
2023-03-07T15:57:07.943Z,6.30
2023-03-07T15:59:37.817Z,5.63
2023-03-07T16:02:36.861Z,6.43
2023-03-07T16:05:06.674Z,6.53
2023-03-07T16:07:35.531Z,5.83
2023-03-07T16:10:03.087Z,6.43
2023-03-07T16:12:30.788Z,6.33
2023-03-07T16:15:00.544Z,6.53
2023-03-07T16:17:31.613Z,6.53
2023-03-07T16:19:59.183Z,5.83
2023-03-07T16:22:26.838Z,6.20
2023-03-07T16:24:56.531Z,6.27
2023-03-07T16:27:25.489Z,6.30
2023-03-07T16:29:54.246Z,5.80
2023-03-07T16:32:23.280Z,5.80
2023-03-07T16:34:51.348Z,6.17
2023-03-07T16:37:20.416Z,5.10
2023-03-07T16:39:48.030Z,5.60
2023-03-07T16:42:22.564Z,5.87
2023-03-07T16:44:51.328Z,5.73
2023-03-07T16:47:19.249Z,5.63
2023-03-07T16:49:47.569Z,4.80
2023-03-07T16:52:15.706Z,5.07
2023-03-07T16:54:43.380Z,5.00
2023-03-07T16:57:14.877Z,5.10
2023-03-07T16:59:46.469Z,5.53
2023-03-07T17:02:16.576Z,5.00
2023-03-07T17:04:44.639Z,5.20
2023-03-07T17:07:17.272Z,5.23
2023-03-07T17:09:45.108Z,5.20
2023-03-07T17:12:13.323Z,5.10
2023-03-07T17:14:40.896Z,4.87
2023-03-07T17:17:13.669Z,4.43
2023-03-07T17:19:42.351Z,5.00
2023-03-07T17:22:10.718Z,4.53
2023-03-07T17:24:38.352Z,5.23
2023-03-07T17:27:06.073Z,5.17
2023-03-07T17:29:36.316Z,5.27
2023-03-07T17:32:04.101Z,5.40
2023-03-07T17:34:34.769Z,4.73
2023-03-07T17:37:02.519Z,4.57
2023-03-07T17:39:30.935Z,5.10
2023-03-07T17:41:59.606Z,5.43
2023-03-07T17:44:27.563Z,4.83
2023-03-07T17:46:56.166Z,5.07
2023-03-07T17:49:24.468Z,5.23
2023-03-07T17:51:53.849Z,5.67
2023-03-07T17:54:21.642Z,6.33
2023-03-07T17:56:49.286Z,5.50
2023-03-07T17:59:17.023Z,6.50
2023-03-07T18:01:44.611Z,6.83
2023-03-07T18:04:12.251Z,7.87
2023-03-07T18:06:41.020Z,6.83
2023-03-07T18:09:10.004Z,6.37
2023-03-07T18:11:37.558Z,6.97
2023-03-07T18:14:05.121Z,6.43
2023-03-07T18:16:32.764Z,5.77
2023-03-07T18:19:03.531Z,6.03
2023-03-07T18:21:32.419Z,4.93
2023-03-07T18:24:00.035Z,5.45
2023-03-07T18:26:29.199Z,5.57
2023-03-07T18:28:56.734Z,5.37
2023-03-07T18:31:28.061Z,5.37
2023-03-07T18:33:56.072Z,5.43
2023-03-07T18:36:25.122Z,6.97
2023-03-07T18:38:52.684Z,7.00
2023-03-07T18:41:22.065Z,6.80
2023-03-07T18:43:51.372Z,13.07
2023-03-07T18:46:20.259Z,6.67
2023-03-07T18:48:48.585Z,5.47
2023-03-07T18:51:18.084Z,5.40
2023-03-07T18:53:45.687Z,5.80
2023-03-07T18:56:14.576Z,6.00
2023-03-07T18:58:42.753Z,5.70
2023-03-07T19:01:13.971Z,5.40
2023-03-07T19:03:41.767Z,5.17
2023-03-07T19:06:10.616Z,5.17
2023-03-07T19:08:38.180Z,5.47
2023-03-07T19:11:07.567Z,5.60
2023-03-07T19:13:35.516Z,6.30
2023-03-07T19:16:04.089Z,5.33
2023-03-07T19:18:33.358Z,5.57
2023-03-07T19:21:01.565Z,12.50
2023-03-07T19:23:29.115Z,6.27
2023-03-07T19:25:56.707Z,5.27
2023-03-07T19:28:24.243Z,5.63
2023-03-07T19:30:54.119Z,6.13
2023-03-07T19:33:21.780Z,5.37
2023-03-07T19:35:50.738Z,5.57
2023-03-07T19:38:18.358Z,6.83
2023-03-07T19:40:50.312Z,6.13
2023-03-07T19:43:18.014Z,6.53
2023-03-07T19:45:45.898Z,6.30
2023-03-07T19:48:13.633Z,6.70
2023-03-07T19:50:41.345Z,6.63
2023-03-07T19:53:10.202Z,7.33
2023-03-07T19:55:37.776Z,7.30
2023-03-07T19:58:05.322Z,6.67
2023-03-07T20:00:32.858Z,6.23
2023-03-07T20:03:00.697Z,6.07
2023-03-07T20:05:28.359Z,6.47
2023-03-07T20:07:55.882Z,6.10
2023-03-07T20:10:24.796Z,5.63
2023-03-07T20:12:54.685Z,5.93
2023-03-07T20:15:22.239Z,6.47
2023-03-07T20:17:49.754Z,6.93
2023-03-07T20:20:17.718Z,6.47
2023-03-07T20:22:45.360Z,7.10
2023-03-07T20:25:12.877Z,7.60
2023-03-07T20:27:41.741Z,8.43
2023-03-07T20:30:10.630Z,6.37
2023-03-07T20:32:38.215Z,6.43
2023-03-07T20:35:06.449Z,5.93
2023-03-07T20:37:34.287Z,5.20
2023-03-07T20:40:04.557Z,5.47
2023-03-07T20:42:32.298Z,5.90
2023-03-07T20:45:01.174Z,6.20
2023-03-07T20:47:28.756Z,6.63
2023-03-07T20:49:56.531Z,6.57
2023-03-07T20:52:25.279Z,5.53
2023-03-07T20:54:52.801Z,6.27
2023-03-07T20:57:20.355Z,5.40
2023-03-07T20:59:47.899Z,5.63
2023-03-07T21:02:16.786Z,5.70
2023-03-07T21:04:44.311Z,6.10
2023-03-07T21:07:11.903Z,11.97
2023-03-07T21:09:39.432Z,10.47
2023-03-07T21:12:08.497Z,5.80
2023-03-07T21:14:36.055Z,6.00
2023-03-07T21:17:03.990Z,4.83
2023-03-07T21:19:32.872Z,4.93
2023-03-07T21:22:00.385Z,4.90
2023-03-07T21:24:27.915Z,4.70
2023-03-07T21:26:57.612Z,4.47
2023-03-07T21:29:25.109Z,5.30
2023-03-07T21:31:53.871Z,5.23
2023-03-07T21:34:21.422Z,5.37
2023-03-07T21:36:55.900Z,4.73
2023-03-07T21:39:24.426Z,5.07
2023-03-07T21:41:52.288Z,5.10
2023-03-07T21:44:20.342Z,5.67
2023-03-07T21:46:47.885Z,5.47
2023-03-07T21:49:15.492Z,6.60
2023-03-07T21:51:43.316Z,8.30
2023-03-07T21:54:12.216Z,6.27
2023-03-07T21:56:39.723Z,5.70
2023-03-07T21:59:07.387Z,5.10
2023-03-07T22:01:34.934Z,5.03
2023-03-07T22:04:02.570Z,5.07
2023-03-07T22:06:30.154Z,5.10
2023-03-07T22:08:59.687Z,4.73
2023-03-07T22:11:28.589Z,6.00
2023-03-07T22:13:56.417Z,5.40
2023-03-07T22:16:24.300Z,5.40
2023-03-07T22:18:55.432Z,5.03
2023-03-07T22:21:25.012Z,5.17
2023-03-07T22:23:52.902Z,5.07
2023-03-07T22:26:20.486Z,5.00
2023-03-07T22:28:49.352Z,4.73
2023-03-07T22:31:16.987Z,4.47
2023-03-07T22:33:44.546Z,4.50
2023-03-07T22:36:13.469Z,4.60
2023-03-07T22:38:41.682Z,4.77
2023-03-07T22:41:11.818Z,4.60
2023-03-07T22:43:39.513Z,4.97
2023-03-07T22:46:09.106Z,4.97
2023-03-07T22:48:37.224Z,4.33
2023-03-07T22:51:05.193Z,4.10
2023-03-07T22:53:33.702Z,8.17
2023-03-07T22:56:01.800Z,7.63
2023-03-07T22:58:30.038Z,4.63
2023-03-07T23:00:57.952Z,4.63
2023-03-07T23:03:26.892Z,5.10
2023-03-07T23:06:00.406Z,5.07
2023-03-07T23:08:27.949Z,4.30
2023-03-07T23:11:01.285Z,4.30
2023-03-07T23:13:28.794Z,4.90
2023-03-07T23:15:56.473Z,4.37
2023-03-07T23:18:24.771Z,5.03
2023-03-07T23:20:53.860Z,4.63
2023-03-07T23:23:21.406Z,5.00
2023-03-07T23:25:49.048Z,4.07
2023-03-07T23:28:16.672Z,4.50
2023-03-07T23:30:44.225Z,5.13
2023-03-07T23:33:11.851Z,4.33
2023-03-07T23:35:39.723Z,4.50
2023-03-07T23:38:08.734Z,5.00
2023-03-07T23:40:37.696Z,5.10
2023-03-07T23:43:06.111Z,5.00
2023-03-07T23:45:33.798Z,4.60
2023-03-07T23:48:01.328Z,4.97
2023-03-07T23:50:28.892Z,4.43
2023-03-07T23:52:56.481Z,4.67
2023-03-07T23:55:25.344Z,4.43
2023-03-07T23:57:52.914Z,4.80
